KBVY/BVY METAR and TAF weather

Enter ICAO airport designator
Station Type Date Time Source
KBVY METAR 2020/01/20 15:53 UTC NOAA

KBVY 201553Z 30010KT 10SM CLR M06/M15 A3017 RMK AO2 SLP213 T10611150 $


Station Type Date Time Source
KBVY Decoded METAR 2020/01/20 15:53 UTC NOAA

BEVERLY MUNICIPAL AIRPORT, MA, United States (KBVY) 42-35N 070-55W 28M
Jan 20, 2020 - 10:53 AM EST / 2020.01.20 1553 UTC
Wind: from the WNW (300 degrees) at 12 MPH (10 KT):0
Visibility: 10 mile(s):0
Sky conditions: clear
Temperature: 21.0 F (-6.1 C)
Windchill: 8 F (-13 C):1
Dew Point: 5.0 F (-15.0 C)
Relative Humidity: 49%
Pressure (altimeter): 30.17 in. Hg (1021 hPa)
ob: KBVY 201553Z 30010KT 10SM CLR M06/M15 A3017 RMK AO2 SLP213 T10611150
cycle: 16

Station Type Date Time Source
KBVY TAF UTC NOAA

Error!

Example: see airport list